Time;durP1;ratioP1;P1;durP2;ratioP2;P2;SDS_P1;SDS_P2;PMS_P1;PMS_P2;Temp;Humidity;BMP_temperature;BMP_pressure;BME280_temperature;BME280_humidity;BME280_pressure;Samples;Min_cycle;Max_cycle;Signal;HPM_P1;HPM_P2
2024/03/16 00:02:11;;;;;;;1.85;1.65;;;10.30;63.90;;;;;;5105703;28;20062;-77
2024/03/16 00:04:55;;;;;;;1.88;1.58;;;10.20;63.80;;;;;;5106129;28;20240;-77
2024/03/16 00:07:40;;;;;;;4.60;2.63;;;10.20;63.80;;;;;;5106247;28;20039;-78
2024/03/16 00:10:25;;;;;;;3.22;1.73;;;10.10;63.80;;;;;;5090136;28;20452;-77
2024/03/16 00:13:09;;;;;;;3.00;1.70;;;10.10;64.40;;;;;;5090065;28;20089;-77
2024/03/16 00:15:56;;;;;;;3.78;1.80;;;10.00;63.70;;;;;;5105020;28;20055;-77
2024/03/16 00:18:40;;;;;;;2.67;1.60;;;10.00;63.80;;;;;;5089988;28;20100;-77
2024/03/16 00:21:25;;;;;;;4.75;1.92;;;10.00;63.90;;;;;;5105552;28;20523;-77
2024/03/16 00:24:10;;;;;;;2.45;1.42;;;10.00;63.90;;;;;;5105002;28;20051;-78
2024/03/16 00:26:55;;;;;;;4.82;1.92;;;9.90;63.90;;;;;;5105535;28;20057;-75
2024/03/16 00:29:40;;;;;;;1.88;1.50;;;9.90;63.90;;;;;;5105079;28;20038;-77
2024/03/16 00:32:25;;;;;;;3.28;1.90;;;9.90;64.00;;;;;;5089620;28;20173;-75
2024/03/16 00:35:10;;;;;;;2.47;1.70;;;9.80;63.90;;;;;;5089674;28;20043;-75
2024/03/16 00:37:54;;;;;;;1.92;1.40;;;9.80;64.00;;;;;;5090552;28;20092;-77
2024/03/16 00:40:39;;;;;;;3.33;1.90;;;9.70;63.90;;;;;;5118442;28;20072;-76
2024/03/16 00:43:24;;;;;;;3.33;1.70;;;9.70;63.90;;;;;;5096140;28;20042;-76
2024/03/16 00:46:08;;;;;;;3.45;2.05;;;9.60;63.80;;;;;;5126020;28;20096;-76
2024/03/16 00:48:53;;;;;;;3.30;2.03;;;9.70;64.10;;;;;;5126255;28;20138;-77
2024/03/16 00:51:37;;;;;;;3.35;2.20;;;9.60;63.90;;;;;;5070153;28;20105;-76
2024/03/16 00:54:22;;;;;;;4.93;2.00;;;9.60;64.00;;;;;;5100459;28;20043;-76
2024/03/16 00:57:07;;;;;;;2.13;1.83;;;9.50;63.90;;;;;;5090068;28;20232;-75
2024/03/16 00:59:51;;;;;;;3.55;1.98;;;9.50;64.00;;;;;;5107995;28;20043;-75
2024/03/16 01:02:36;;;;;;;3.42;2.10;;;9.50;64.00;;;;;;5093572;28;20069;-77
2024/03/16 01:05:22;;;;;;;2.42;2.05;;;9.40;63.90;;;;;;5093584;28;20532;-76
2024/03/16 01:08:06;;;;;;;3.22;1.85;;;9.40;63.90;;;;;;5089067;28;20508;-76
2024/03/16 01:10:55;;;;;;;1.83;1.63;;;9.40;64.00;;;;;;5108270;28;20431;-76
2024/03/16 01:13:40;;;;;;;4.60;1.85;;;9.40;64.10;;;;;;5108737;28;20038;-76
2024/03/16 01:16:26;;;;;;;3.45;1.63;;;9.30;63.90;;;;;;5108493;28;20505;-76
2024/03/16 01:19:10;;;;;;;4.05;1.80;;;9.30;64.00;;;;;;5108785;28;20043;-76
2024/03/16 01:21:54;;;;;;;2.15;1.70;;;9.30;64.10;;;;;;5108560;28;20047;-75
2024/03/16 01:24:38;;;;;;;2.30;1.58;;;9.20;63.90;;;;;;5108628;28;20469;-76
2024/03/16 01:27:23;;;;;;;2.75;2.20;;;9.20;64.00;;;;;;5093031;28;20077;-75
2024/03/16 01:30:08;;;;;;;2.20;1.80;;;9.20;64.00;;;;;;5108935;28;20086;-76
2024/03/16 01:32:53;;;;;;;2.78;1.90;;;9.10;63.90;;;;;;5093184;28;20481;-77
2024/03/16 01:35:38;;;;;;;4.13;2.10;;;9.10;63.90;;;;;;5109192;28;20501;-76
2024/03/16 01:38:23;;;;;;;3.95;1.90;;;9.10;64.00;;;;;;5108390;28;20082;-76
2024/03/16 01:41:07;;;;;;;2.17;1.98;;;9.10;64.10;;;;;;5092919;28;20448;-76
2024/03/16 01:43:52;;;;;;;3.15;1.80;;;9.00;63.90;;;;;;5093213;28;20097;-76
2024/03/16 01:46:41;;;;;;;2.83;1.92;;;9.00;64.00;;;;;;5093380;28;20066;-76
2024/03/16 01:49:25;;;;;;;4.25;2.33;;;9.00;64.00;;;;;;5108022;28;20108;-76
2024/03/16 01:52:10;;;;;;;6.13;2.03;;;9.00;64.10;;;;;;5108455;28;20326;-76
2024/03/16 01:54:55;;;;;;;2.72;1.90;;;8.90;63.90;;;;;;5092962;28;20074;-76
2024/03/16 01:57:40;;;;;;;4.82;2.28;;;8.90;64.00;;;;;;5092737;28;20459;-76
2024/03/16 02:00:26;;;;;;;4.90;2.65;;;8.90;64.00;;;;;;5107851;28;20026;-76
2024/03/16 02:03:11;;;;;;;3.15;1.77;;;8.80;63.90;;;;;;5108380;28;20047;-76
2024/03/16 02:05:55;;;;;;;2.67;2.17;;;8.80;63.90;;;;;;5108313;28;20421;-76
2024/03/16 02:08:40;;;;;;;3.42;1.75;;;8.80;63.90;;;;;;5092790;28;20496;-76
2024/03/16 02:11:24;;;;;;;7.50;2.33;;;8.70;63.80;;;;;;5093162;28;20088;-76
2024/03/16 02:14:10;;;;;;;3.17;1.98;;;8.70;63.80;;;;;;5108239;28;20093;-76
2024/03/16 02:16:55;;;;;;;3.53;1.95;;;8.70;63.90;;;;;;5107795;28;20046;-76
2024/03/16 02:19:39;;;;;;;2.63;2.00;;;8.60;63.70;;;;;;5110791;27;20175;-77
2024/03/16 02:22:24;;;;;;;4.57;2.10;;;8.60;63.80;;;;;;5113430;27;20076;-76
2024/03/16 02:25:09;;;;;;;3.15;2.17;;;8.60;63.80;;;;;;5129280;27;20224;-75
2024/03/16 02:27:54;;;;;;;2.70;1.65;;;8.50;63.70;;;;;;5112657;27;20042;-76
2024/03/16 02:30:38;;;;;;;3.58;2.05;;;8.50;63.70;;;;;;5123164;27;20093;-75
2024/03/16 02:33:23;;;;;;;5.50;2.13;;;8.50;63.80;;;;;;5094364;28;20130;-76
2024/03/16 02:36:07;;;;;;;3.38;1.92;;;8.40;63.70;;;;;;5109663;28;20185;-77
2024/03/16 02:38:52;;;;;;;2.55;1.67;;;8.40;63.70;;;;;;5108873;28;20618;-76
2024/03/16 02:41:37;;;;;;;2.65;1.83;;;8.40;63.70;;;;;;5093618;28;20107;-76
2024/03/16 02:44:25;;;;;;;4.03;2.00;;;8.40;63.80;;;;;;5109322;28;20045;-75
2024/03/16 02:47:10;;;;;;;2.78;1.80;;;8.30;63.60;;;;;;5096078;28;20039;-76
2024/03/16 02:49:54;;;;;;;5.90;1.90;;;8.30;63.70;;;;;;5097143;28;20394;-76
2024/03/16 02:52:39;;;;;;;2.95;1.77;;;8.30;63.70;;;;;;5083001;28;20078;-77
2024/03/16 02:55:23;;;;;;;8.10;2.40;;;8.20;63.50;;;;;;5112307;28;20093;-76
2024/03/16 02:58:08;;;;;;;2.85;1.85;;;8.20;63.60;;;;;;5112279;28;20042;-76
2024/03/16 03:00:52;;;;;;;3.90;1.80;;;8.20;63.60;;;;;;5096702;28;20038;-77
2024/03/16 03:03:37;;;;;;;3.63;1.92;;;8.10;63.40;;;;;;5112541;28;20034;-77
2024/03/16 03:06:22;;;;;;;2.55;1.95;;;8.10;63.40;;;;;;5097141;28;20039;-76
2024/03/16 03:09:07;;;;;;;3.90;2.10;;;8.10;63.50;;;;;;5103672;28;20107;-76
2024/03/16 03:11:52;;;;;;;3.92;1.95;;;8.10;63.60;;;;;;5115620;28;20083;-76
2024/03/16 03:14:36;;;;;;;5.20;2.10;;;8.00;63.40;;;;;;5135220;28;20119;-78
2024/03/16 03:17:21;;;;;;;3.15;2.03;;;7.90;63.30;;;;;;5135351;28;20046;-77
2024/03/16 03:20:08;;;;;;;3.15;1.75;;;7.90;63.30;;;;;;5126041;28;20127;-77
2024/03/16 03:22:52;;;;;;;4.68;2.13;;;7.90;63.40;;;;;;5128480;28;20046;-76
2024/03/16 03:25:37;;;;;;;3.90;1.70;;;7.90;63.40;;;;;;5124005;28;20047;-76
2024/03/16 03:28:21;;;;;;;3.33;2.15;;;7.90;63.50;;;;;;5107795;28;20042;-76
2024/03/16 03:31:08;;;;;;;4.35;2.20;;;7.90;63.50;;;;;;5111415;28;20111;-76
2024/03/16 03:33:52;;;;;;;2.25;1.83;;;7.80;63.30;;;;;;5100301;28;20047;-76
2024/03/16 03:36:43;;;;;;;3.15;2.50;;;7.80;63.40;;;;;;5082828;28;20570;-76
2024/03/16 03:39:27;;;;;;;4.25;2.17;;;7.80;63.40;;;;;;5096777;28;20034;-76
2024/03/16 03:42:12;;;;;;;4.03;2.10;;;7.80;63.50;;;;;;5112274;28;20046;-76
2024/03/16 03:48:35;;;;;;;4.80;2.33;;;7.70;63.40;;;;;;5100327;28;20108;-76
2024/03/16 03:51:19;;;;;;;2.73;2.43;;;7.70;63.40;;;;;;5111347;28;20038;-75
2024/03/16 03:54:06;;;;;;;2.85;1.90;;;7.60;63.20;;;;;;5081659;28;20092;-76
2024/03/16 03:56:51;;;;;;;3.45;2.08;;;7.60;63.30;;;;;;5081157;28;20050;-75
2024/03/16 03:59:35;;;;;;;2.35;2.08;;;7.60;63.30;;;;;;5096089;28;20039;-75
2024/03/16 04:02:20;;;;;;;3.33;2.17;;;7.50;63.10;;;;;;5095801;28;20035;-76
2024/03/16 04:05:04;;;;;;;3.05;2.00;;;7.50;63.20;;;;;;5095717;28;20076;-76
2024/03/16 04:07:49;;;;;;;4.13;2.33;;;7.50;63.20;;;;;;5095755;28;20042;-76
2024/03/16 04:10:34;;;;;;;4.07;2.45;;;7.50;63.30;;;;;;5111120;28;20042;-75
2024/03/16 04:13:19;;;;;;;5.47;2.70;;;7.40;63.10;;;;;;5111379;28;20076;-76
2024/03/16 04:16:04;;;;;;;5.55;2.83;;;7.40;63.20;;;;;;5095421;28;20212;-76
2024/03/16 04:18:48;;;;;;;5.32;2.85;;;7.40;63.20;;;;;;5095922;28;20179;-76
2024/03/16 04:21:32;;;;;;;4.00;2.60;;;7.40;63.20;;;;;;5095684;28;20042;-75
2024/03/16 04:24:17;;;;;;;5.43;2.88;;;7.30;63.60;;;;;;5095747;28;20034;-75
2024/03/16 04:27:01;;;;;;;3.60;2.92;;;7.30;63.10;;;;;;5110777;28;20607;-75
2024/03/16 04:29:45;;;;;;;3.78;2.83;;;7.30;63.10;;;;;;5095559;28;20046;-75
2024/03/16 04:32:30;;;;;;;5.13;2.55;;;7.20;63.00;;;;;;5096192;28;20571;-75
2024/03/16 04:35:15;;;;;;;5.50;3.03;;;7.30;63.20;;;;;;5114725;28;20699;-75
2024/03/16 04:37:59;;;;;;;5.53;3.33;;;7.20;63.00;;;;;;5099302;28;20398;-76
2024/03/16 04:40:44;;;;;;;4.30;2.65;;;7.20;63.00;;;;;;5085495;28;20043;-75
2024/03/16 04:43:29;;;;;;;3.83;2.25;;;7.10;62.90;;;;;;5115144;28;20035;-76
2024/03/16 04:46:13;;;;;;;6.00;2.97;;;7.10;63.00;;;;;;5099402;28;20046;-76
2024/03/16 04:48:58;;;;;;;3.92;2.60;;;7.10;63.00;;;;;;5115396;28;20042;-76
2024/03/16 04:51:42;;;;;;;4.50;2.88;;;7.10;63.00;;;;;;5115076;28;20122;-75
2024/03/16 04:54:27;;;;;;;4.80;2.92;;;7.10;63.10;;;;;;5099285;28;20038;-75
2024/03/16 04:57:12;;;;;;;4.78;3.00;;;7.00;62.90;;;;;;5114748;28;20050;-75
2024/03/16 04:59:56;;;;;;;5.72;3.20;;;7.00;63.00;;;;;;5114855;28;20046;-76
2024/03/16 05:02:41;;;;;;;6.60;3.80;;;7.00;63.00;;;;;;5114649;28;20126;-75
2024/03/16 05:05:26;;;;;;;5.07;3.13;;;7.00;63.00;;;;;;5114234;28;20652;-75
2024/03/16 05:08:10;;;;;;;4.38;2.80;;;6.90;62.90;;;;;;5083866;28;20101;-75
2024/03/16 05:10:54;;;;;;;3.88;2.95;;;6.90;62.90;;;;;;5098113;28;20111;-75
2024/03/16 05:13:38;;;;;;;3.50;2.90;;;6.90;62.90;;;;;;5114405;28;20397;-76
2024/03/16 05:16:23;;;;;;;4.10;3.38;;;6.90;63.00;;;;;;5113840;28;20406;-74
2024/03/16 05:19:07;;;;;;;9.70;2.97;;;6.90;63.00;;;;;;5114252;28;20172;-76
2024/03/16 05:21:52;;;;;;;4.18;3.10;;;6.80;62.90;;;;;;5114568;28;20035;-75
2024/03/16 05:24:37;;;;;;;3.58;3.10;;;6.80;62.90;;;;;;5099111;28;20126;-75
2024/03/16 05:27:21;;;;;;;6.43;3.33;;;6.80;63.00;;;;;;5113913;28;20092;-75
2024/03/16 05:30:07;;;;;;;4.53;3.60;;;6.80;63.00;;;;;;5114510;28;20037;-75
2024/03/16 05:32:52;;;;;;;4.20;3.55;;;6.80;63.00;;;;;;5098425;28;20131;-75
2024/03/16 05:35:40;;;;;;;4.65;3.20;;;6.70;62.90;;;;;;5098210;28;20505;-75
2024/03/16 05:38:25;;;;;;;4.43;3.10;;;6.70;62.90;;;;;;5098611;28;20402;-75
2024/03/16 05:41:10;;;;;;;3.40;3.03;;;6.70;63.00;;;;;;5113980;28;20093;-75
2024/03/16 05:43:54;;;;;;;3.90;2.65;;;6.70;63.00;;;;;;5113603;28;20092;-74
2024/03/16 05:46:38;;;;;;;4.20;3.40;;;6.70;63.10;;;;;;5098132;28;20074;-75
2024/03/16 05:49:23;;;;;;;5.75;3.30;;;6.70;63.10;;;;;;5089532;28;20042;-75
2024/03/16 05:52:08;;;;;;;3.42;2.78;;;6.60;63.00;;;;;;5089547;28;20039;-75
2024/03/16 05:54:52;;;;;;;4.05;3.03;;;6.60;63.00;;;;;;5073896;28;20498;-75
2024/03/16 05:57:37;;;;;;;6.22;3.40;;;6.60;63.00;;;;;;5077094;28;20061;-75
2024/03/16 06:00:22;;;;;;;6.22;3.70;;;6.60;63.10;;;;;;5109243;28;20035;-75
2024/03/16 06:03:07;;;;;;;3.92;3.55;;;6.60;63.20;;;;;;5085932;28;20032;-75
2024/03/16 06:05:51;;;;;;;3.97;3.45;;;6.60;63.20;;;;;;5087345;28;20410;-75
2024/03/16 06:08:36;;;;;;;4.70;3.63;;;6.60;63.20;;;;;;5099000;28;20096;-75
2024/03/16 06:11:21;;;;;;;7.03;3.67;;;6.50;63.10;;;;;;5077848;28;20078;-75
2024/03/16 06:14:05;;;;;;;4.40;3.10;;;6.50;63.20;;;;;;5091389;28;20054;-75
2024/03/16 06:16:50;;;;;;;5.68;3.35;;;6.50;63.20;;;;;;5106897;28;20063;-75
2024/03/16 06:19:34;;;;;;;5.97;4.00;;;6.50;63.20;;;;;;5106725;28;20092;-74
2024/03/16 06:22:19;;;;;;;4.07;3.47;;;6.50;63.30;;;;;;5106660;28;20386;-74
2024/03/16 06:25:04;;;;;;;5.72;3.28;;;6.50;63.30;;;;;;5091902;28;20394;-74
2024/03/16 06:27:53;;;;;;;5.47;3.20;;;6.50;63.30;;;;;;5077185;28;20055;-75
2024/03/16 06:30:37;;;;;;;4.32;3.40;;;6.50;63.40;;;;;;5106699;28;20139;-75
2024/03/16 06:33:29;;;;;;;6.72;3.97;;;6.50;63.40;;;;;;5106130;28;20066;-75
2024/03/16 06:36:14;;;;;;;8.35;3.65;;;6.50;63.40;;;;;;5091797;28;20449;-75
2024/03/16 06:39:00;;;;;;;4.55;3.80;;;6.50;63.50;;;;;;5106328;28;20054;-75
2024/03/16 06:41:45;;;;;;;4.78;3.38;;;6.40;63.30;;;;;;5091314;28;20151;-75
2024/03/16 06:44:30;;;;;;;4.93;3.33;;;6.50;63.50;;;;;;5070080;28;20042;-75
2024/03/16 06:47:14;;;;;;;3.42;3.13;;;6.50;63.50;;;;;;5084556;28;20093;-76
2024/03/16 06:49:58;;;;;;;10.00;3.67;;;6.50;63.60;;;;;;5086076;28;20050;-75
2024/03/16 06:52:43;;;;;;;4.53;3.53;;;6.50;63.60;;;;;;5084835;28;20058;-75
2024/03/16 06:55:27;;;;;;;4.32;3.25;;;6.50;63.70;;;;;;5085908;28;20529;-75
2024/03/16 06:58:13;;;;;;;5.53;3.03;;;6.50;63.70;;;;;;5093022;28;20405;-74
2024/03/16 07:00:58;;;;;;;3.30;2.80;;;6.60;63.90;;;;;;5104963;28;20104;-75
2024/03/16 07:03:42;;;;;;;4.00;3.03;;;6.60;63.90;;;;;;5105537;28;20051;-75
2024/03/16 07:06:27;;;;;;;3.83;3.05;;;6.60;63.90;;;;;;5075945;28;20398;-75
2024/03/16 07:09:13;;;;;;;3.95;2.75;;;6.60;63.90;;;;;;5090387;28;20065;-75
2024/03/16 07:11:58;;;;;;;5.20;3.47;;;6.60;63.90;;;;;;5090758;28;20402;-75
2024/03/16 07:14:42;;;;;;;3.88;2.83;;;6.70;64.10;;;;;;5089968;28;20122;-75
2024/03/16 07:17:26;;;;;;;5.13;2.90;;;6.80;64.30;;;;;;5105169;28;20509;-75
2024/03/16 07:20:12;;;;;;;4.13;2.92;;;6.80;64.20;;;;;;5105941;28;20330;-76
2024/03/16 07:22:56;;;;;;;5.50;3.38;;;6.80;64.20;;;;;;5090438;28;20085;-75
2024/03/16 07:25:41;;;;;;;6.40;2.95;;;7.00;64.60;;;;;;5090832;28;20114;-76
2024/03/16 07:28:25;;;;;;;3.05;2.50;;;7.10;65.30;;;;;;5076476;28;20043;-75
2024/03/16 07:31:12;;;;;;;3.85;2.72;;;7.20;64.90;;;;;;5106048;28;20398;-75
2024/03/16 07:33:56;;;;;;;6.50;2.40;;;7.40;65.20;;;;;;5105928;28;20469;-74
2024/03/16 07:36:42;;;;;;;4.43;2.58;;;7.50;65.20;;;;;;5105915;28;20417;-76
2024/03/16 07:39:27;;;;;;;4.55;2.63;;;7.70;65.50;;;;;;5072864;28;20198;-75
2024/03/16 07:42:11;;;;;;;4.68;3.15;;;7.80;65.60;;;;;;5087106;28;20043;-76
2024/03/16 07:44:55;;;;;;;5.22;2.60;;;7.90;65.70;;;;;;5119114;27;20501;-76
2024/03/16 07:47:40;;;;;;;6.35;3.78;;;8.10;66.20;;;;;;5127287;27;20038;-77
2024/03/16 07:50:25;;;;;;;5.25;4.20;;;8.30;66.50;;;;;;5127929;27;20039;-77
2024/03/16 07:53:10;;;;;;;10.13;4.95;;;8.50;66.70;;;;;;5110028;27;20479;-76
2024/03/16 07:55:56;;;;;;;7.43;4.13;;;8.70;66.90;;;;;;5110223;27;20042;-77
2024/03/16 07:58:40;;;;;;;7.32;3.70;;;8.80;66.90;;;;;;5125084;27;20558;-77
2024/03/16 08:01:25;;;;;;;5.32;3.53;;;9.00;67.10;;;;;;5126249;27;20123;-77
2024/03/16 08:04:10;;;;;;;5.88;3.47;;;9.20;67.30;;;;;;5082833;28;20128;-78
2024/03/16 08:06:55;;;;;;;7.75;3.97;;;9.40;67.50;;;;;;5082674;28;20075;-78
2024/03/16 08:09:39;;;;;;;4.90;3.35;;;9.50;67.50;;;;;;5088684;28;20088;-77
2024/03/16 08:12:25;;;;;;;4.25;2.78;;;9.60;67.50;;;;;;5106149;28;20316;-77
2024/03/16 08:15:10;;;;;;;5.07;2.85;;;9.80;67.70;;;;;;5106245;28;20039;-77
2024/03/16 08:17:57;;;;;;;5.15;3.22;;;10.00;68.00;;;;;;5091479;28;20050;-77
2024/03/16 08:20:50;;;;;;;5.25;2.70;;;10.10;68.00;;;;;;5091987;28;20107;-78
2024/03/16 08:23:42;;;;;;;4.82;2.25;;;10.30;68.20;;;;;;5077704;28;20552;-79
2024/03/16 08:26:28;;;;;;;3.03;1.80;;;10.40;68.30;;;;;;5079070;28;20151;-78
2024/03/16 08:29:33;;;;;;;3.28;1.65;;;10.60;68.40;;;;;;5106196;28;20035;-79
2024/03/16 08:32:21;;;;;;;6.20;2.78;;;10.80;68.60;;;;;;5105386;28;20054;-79
2024/03/16 08:38:06;;;;;;;3.42;1.70;;;11.10;68.80;;;;;;4350595;26;20060;-77
2024/03/16 08:40:51;;;;;;;5.43;2.50;;;11.20;68.80;;;;;;5005631;28;20057;-78
2024/03/16 08:43:35;;;;;;;3.67;1.88;;;11.40;68.90;;;;;;4999252;28;20044;-74
2024/03/16 08:46:20;;;;;;;7.90;2.65;;;11.60;69.00;;;;;;5020125;28;20170;-74
2024/03/16 08:49:07;;;;;;;4.00;2.03;;;11.60;68.80;;;;;;5008133;28;20106;-78
2024/03/16 08:51:51;;;;;;;4.15;1.70;;;11.80;69.00;;;;;;5003650;28;20139;-77
2024/03/16 08:54:36;;;;;;;4.82;2.65;;;11.90;69.00;;;;;;5014518;28;20073;-78
2024/03/16 08:57:20;;;;;;;6.38;1.58;;;12.00;68.90;;;;;;5022995;28;20052;-76
2024/03/16 09:00:05;;;;;;;4.43;1.80;;;12.10;68.90;;;;;;5024340;28;20452;-79
2024/03/16 09:02:52;;;;;;;2.63;1.80;;;12.20;69.00;;;;;;5023781;28;20044;-78
2024/03/16 09:05:36;;;;;;;5.80;2.00;;;12.30;69.00;;;;;;4991675;28;20084;-79
2024/03/16 09:08:20;;;;;;;3.22;1.80;;;12.40;69.00;;;;;;5003837;28;20210;-78
2024/03/16 09:11:04;;;;;;;9.35;1.75;;;12.50;69.00;;;;;;4990921;28;20524;-79
2024/03/16 09:13:49;;;;;;;3.85;2.00;;;12.60;69.00;;;;;;5010368;28;20117;-77
2024/03/16 09:16:40;;;;;;;2.67;2.00;;;12.60;68.90;;;;;;5024356;28;20412;-73
2024/03/16 09:19:25;;;;;;;2.65;1.42;;;12.70;68.90;;;;;;5003486;28;20052;-71
2024/03/16 09:22:09;;;;;;;3.83;2.33;;;12.80;68.90;;;;;;4993405;28;20119;-71
2024/03/16 09:24:54;;;;;;;4.03;1.48;;;12.80;68.70;;;;;;5008645;28;20120;-73
2024/03/16 09:27:38;;;;;;;3.45;2.72;;;12.90;68.80;;;;;;5007649;28;20080;-74
2024/03/16 09:30:23;;;;;;;2.35;1.58;;;12.90;68.70;;;;;;4993190;28;20449;-79
2024/03/16 09:33:08;;;;;;;4.68;2.25;;;13.00;68.80;;;;;;4998469;28;20048;-75
2024/03/16 09:35:52;;;;;;;4.65;1.98;;;13.00;68.70;;;;;;4986624;28;20052;-75
2024/03/16 09:38:37;;;;;;;2.65;1.63;;;13.00;68.60;;;;;;4997564;28;20056;-76
2024/03/16 09:41:22;;;;;;;4.18;2.08;;;13.10;68.80;;;;;;5005587;28;20092;-76
2024/03/16 09:44:13;;;;;;;4.05;2.00;;;13.20;68.80;;;;;;5006120;28;20040;-79
2024/03/16 09:46:59;;;;;;;3.53;1.75;;;13.20;68.70;;;;;;5005384;28;20547;-77
2024/03/16 09:49:44;;;;;;;4.28;3.13;;;13.30;68.70;;;;;;5006197;28;20863;-78
2024/03/16 09:52:40;;;;;;;2.97;1.73;;;13.40;68.70;;;;;;5006791;28;20045;-79
2024/03/16 09:55:27;;;;;;;4.65;1.60;;;13.50;68.70;;;;;;5006092;28;20106;-77
2024/03/16 09:58:12;;;;;;;5.05;1.95;;;13.70;68.80;;;;;;5060079;23;20123;-77
2024/03/16 10:01:03;;;;;;;3.40;1.65;;;13.80;68.70;;;;;;5032721;28;20068;-77
2024/03/16 10:03:47;;;;;;;4.53;1.58;;;14.00;68.80;;;;;;5041520;28;20056;-76
2024/03/16 10:06:32;;;;;;;3.58;1.75;;;14.20;68.80;;;;;;5066762;28;20498;-77
2024/03/16 10:09:18;;;;;;;5.28;2.35;;;14.40;68.70;;;;;;5035097;28;20479;-77
2024/03/16 10:12:09;;;;;;;7.65;2.80;;;14.50;68.50;;;;;;5031901;28;20122;-77
2024/03/16 10:15:18;;;;;;;4.03;2.35;;;14.70;68.50;;;;;;5045620;28;20403;-77
2024/03/16 10:18:03;;;;;;;2.42;1.63;;;14.70;68.10;;;;;;5030783;28;20052;-78
2024/03/16 10:20:47;;;;;;;5.22;2.50;;;14.90;68.20;;;;;;5030249;28;20514;-77
2024/03/16 10:23:32;;;;;;;3.17;1.98;;;15.10;68.20;;;;;;5030376;28;20132;-78
2024/03/16 10:26:16;;;;;;;4.30;2.35;;;15.20;68.00;;;;;;5031346;28;20056;-78
2024/03/16 10:29:09;;;;;;;2.78;2.05;;;15.30;67.70;;;;;;5045509;28;20090;-77
2024/03/16 10:31:54;;;;;;;3.55;1.80;;;15.40;67.60;;;;;;5010680;28;20044;-76
2024/03/16 10:34:40;;;;;;;2.03;1.30;;;15.50;67.50;;;;;;5024624;28;20374;-76
2024/03/16 10:37:25;;;;;;;3.20;2.30;;;15.60;67.30;;;;;;5003476;28;20048;-76
2024/03/16 10:40:16;;;;;;;5.50;1.50;;;15.70;67.00;;;;;;5044891;28;20083;-76
2024/03/16 10:43:02;;;;;;;3.85;1.50;;;15.80;66.90;;;;;;5043803;28;20040;-75
2024/03/16 10:45:47;;;;;;;3.15;1.60;;;15.80;66.80;;;;;;5045364;28;20044;-75
2024/03/16 10:48:32;;;;;;;3.83;1.80;;;15.80;66.60;;;;;;5045261;28;20495;-75
2024/03/16 10:51:17;;;;;;;4.28;1.90;;;15.80;66.40;;;;;;5046239;28;20032;-75
2024/03/16 10:54:08;;;;;;;2.33;1.40;;;15.80;66.30;;;;;;5045851;28;20040;-77
2024/03/16 10:56:53;;;;;;;2.50;1.20;;;15.80;66.10;;;;;;5045796;28;20585;-77
2024/03/16 10:59:42;;;;;;;2.63;1.23;;;15.80;65.90;;;;;;5045929;28;20403;-74
2024/03/16 11:02:27;;;;;;;2.13;1.50;;;15.80;65.70;;;;;;5030893;28;20552;-75
2024/03/16 11:05:37;;;;;;;3.20;1.58;;;15.80;65.60;;;;;;5030970;28;20039;-75
2024/03/16 11:08:39;;;;;;;2.33;1.60;;;15.80;65.20;;;;;;5030192;28;20130;-76
2024/03/16 11:11:30;;;;;;;4.35;1.70;;;15.80;65.20;;;;;;5030060;28;20036;-75
2024/03/16 11:14:14;;;;;;;2.45;1.45;;;15.80;65.10;;;;;;5045690;28;20129;-75
2024/03/16 11:16:59;;;;;;;1.83;1.17;;;15.80;65.10;;;;;;5045688;28;20637;-75
2024/03/16 11:19:43;;;;;;;3.60;1.20;;;15.90;65.10;;;;;;5065217;28;20122;-76
2024/03/16 11:22:29;;;;;;;4.20;1.35;;;15.90;64.90;;;;;;5053084;28;20318;-77
2024/03/16 11:25:23;;;;;;;3.00;1.42;;;15.90;64.70;;;;;;5017074;28;20092;-76
2024/03/16 11:28:08;;;;;;;1.67;0.90;;;15.90;64.50;;;;;;5015512;28;20407;-76
2024/03/16 11:31:12;;;;;;;2.67;0.90;;;15.90;64.40;;;;;;5043416;28;20040;-76
2024/03/16 11:33:58;;;;;;;1.65;0.93;;;15.90;64.30;;;;;;5028179;28;20209;-77
2024/03/16 11:36:44;;;;;;;1.88;1.02;;;15.80;64.10;;;;;;5042500;28;20462;-77
2024/03/16 11:39:29;;;;;;;2.97;1.10;;;15.90;64.10;;;;;;5044017;28;20075;-77
2024/03/16 11:42:15;;;;;;;1.83;0.98;;;15.90;64.40;;;;;;5044513;28;20083;-77
2024/03/16 11:44:59;;;;;;;2.60;0.90;;;15.90;63.70;;;;;;5045437;28;20063;-77
2024/03/16 11:47:46;;;;;;;1.67;0.70;;;15.90;63.50;;;;;;5029840;28;20044;-89
2024/03/16 11:50:30;;;;;;;4.72;0.95;;;15.90;63.40;;;;;;5029225;28;20438;-77
2024/03/16 11:53:14;;;;;;;1.58;1.05;;;15.90;63.50;;;;;;5029823;28;20047;-77
2024/03/16 11:55:59;;;;;;;1.23;1.08;;;16.00;64.00;;;;;;5030517;28;20116;-77
2024/03/16 11:58:44;;;;;;;4.35;1.27;;;16.10;64.30;;;;;;5055653;28;20032;-79
2024/03/16 12:01:31;;;;;;;4.47;0.90;;;16.20;64.60;;;;;;5065361;28;20389;-77
2024/03/16 12:04:17;;;;;;;20.10;11.25;;;16.30;64.70;;;;;;5065362;28;20208;-77
2024/03/16 12:07:02;;;;;;;15.10;7.25;;;16.50;65.10;;;;;;5049506;28;20502;-77
2024/03/16 12:09:48;;;;;;;9.90;5.72;;;16.60;65.40;;;;;;5048178;28;20445;-79
2024/03/16 12:12:32;;;;;;;10.55;4.82;;;16.80;65.80;;;;;;5048942;28;20610;-80
2024/03/16 12:15:22;;;;;;;9.73;6.15;;;17.00;66.10;;;;;;5064311;28;20165;-79
2024/03/16 12:18:09;;;;;;;7.25;5.10;;;17.20;66.40;;;;;;5062872;28;20102;-79
2024/03/16 12:20:56;;;;;;;13.25;8.57;;;17.30;66.60;;;;;;5048875;28;20052;-79
2024/03/16 12:23:40;;;;;;;19.58;11.38;;;17.50;66.90;;;;;;5063204;28;20051;-78
2024/03/16 12:26:27;;;;;;;14.32;8.73;;;17.60;67.30;;;;;;5048633;28;20451;-78
2024/03/16 12:29:16;;;;;;;12.60;8.40;;;17.70;67.60;;;;;;5048473;28;20039;-78
2024/03/16 12:32:02;;;;;;;15.02;7.15;;;17.90;68.00;;;;;;5049057;28;20039;-78
2024/03/16 12:34:46;;;;;;;10.50;7.70;;;18.10;68.00;;;;;;5035475;28;20727;-78
2024/03/16 12:37:31;;;;;;;9.13;7.13;;;18.20;67.80;;;;;;5048001;28;20050;-78
2024/03/16 12:40:15;;;;;;;8.57;6.88;;;18.40;67.80;;;;;;5008544;28;20052;-78
2024/03/16 12:43:00;;;;;;;8.50;6.53;;;18.50;67.50;;;;;;5008254;28;20048;-79
2024/03/16 12:45:44;;;;;;;9.10;6.28;;;18.60;67.30;;;;;;5023424;28;20044;-78
2024/03/16 12:48:30;;;;;;;10.48;7.72;;;18.60;67.00;;;;;;5031182;28;20481;-78
2024/03/16 12:51:17;;;;;;;8.75;5.80;;;18.70;66.80;;;;;;5044309;28;20064;-78
2024/03/16 12:54:02;;;;;;;7.85;5.78;;;18.70;66.50;;;;;;5043845;28;20090;-78
2024/03/16 12:56:50;;;;;;;11.13;5.88;;;18.70;66.30;;;;;;5048147;28;20560;-77
2024/03/16 12:59:37;;;;;;;9.27;5.25;;;18.70;66.10;;;;;;5033052;28;20092;-78
2024/03/16 13:02:22;;;;;;;7.18;4.63;;;18.70;65.90;;;;;;5048274;28;20087;-77
2024/03/16 13:05:13;;;;;;;5.43;4.50;;;18.70;65.90;;;;;;5033559;28;20506;-77
2024/03/16 13:07:59;;;;;;;9.13;5.45;;;18.70;65.60;;;;;;5047809;28;20044;-76
2024/03/16 13:10:44;;;;;;;5.45;4.18;;;18.70;65.60;;;;;;5047789;28;20047;-76
2024/03/16 13:13:28;;;;;;;6.60;4.50;;;18.70;65.40;;;;;;5047586;28;20040;-77
2024/03/16 13:16:15;;;;;;;5.97;4.32;;;18.70;65.30;;;;;;5048041;28;20060;-76
2024/03/16 13:18:59;;;;;;;5.47;3.38;;;18.60;65.10;;;;;;5032339;28;20047;-76
2024/03/16 13:21:45;;;;;;;4.47;3.72;;;18.60;65.00;;;;;;5047445;28;20048;-76
2024/03/16 13:24:29;;;;;;;5.88;3.40;;;18.50;64.80;;;;;;5047656;28;20062;-75
2024/03/16 13:27:14;;;;;;;6.13;3.55;;;18.40;64.60;;;;;;5047391;28;20570;-76
2024/03/16 13:29:59;;;;;;;4.32;3.17;;;18.40;64.70;;;;;;5046770;28;20048;-77
2024/03/16 13:32:43;;;;;;;3.72;2.92;;;18.30;64.50;;;;;;5047324;28;20098;-77
2024/03/16 13:35:27;;;;;;;4.30;3.15;;;18.30;64.50;;;;;;5033349;28;20047;-77
2024/03/16 13:42:39;;;;;;;3.75;2.67;;;18.20;64.40;;;;;;5093589;27;20918;-53
2024/03/16 13:45:23;;;;;;;4.20;2.45;;;18.10;64.30;;;;;;5034928;28;197845;-51
2024/03/16 13:50:45;;;;;;;2.83;2.15;;;18.00;64.10;;;;;;5057830;27;271908;-52
2024/03/16 13:53:30;;;;;;;5.78;2.42;;;17.90;64.10;;;;;;5036569;28;20087;-50
2024/03/16 13:56:15;;;;;;;5.57;2.50;;;17.90;64.00;;;;;;5033330;28;20625;-50
2024/03/16 13:58:59;;;;;;;3.28;2.30;;;17.80;63.80;;;;;;5032069;28;20056;-53
2024/03/16 14:01:44;;;;;;;2.92;2.28;;;17.80;63.80;;;;;;5028530;28;20260;-49
2024/03/16 14:04:32;;;;;;;3.83;2.10;;;17.70;63.70;;;;;;5035486;28;20048;-56
2024/03/16 14:07:17;;;;;;;3.35;2.08;;;17.60;63.50;;;;;;5032433;28;20395;-49
2024/03/16 14:10:01;;;;;;;2.97;1.80;;;17.50;63.40;;;;;;5032397;28;20107;-56
2024/03/16 14:12:50;;;;;;;5.13;1.88;;;17.40;63.30;;;;;;5029674;28;20402;-50
2024/03/16 14:15:34;;;;;;;3.20;1.77;;;17.40;63.30;;;;;;5034513;28;20051;-48
2024/03/16 14:18:19;;;;;;;2.28;1.58;;;17.30;63.10;;;;;;5032632;28;20184;-49
2024/03/16 14:21:05;;;;;;;4.80;1.73;;;17.30;63.20;;;;;;5031833;28;20541;-50
2024/03/16 14:23:50;;;;;;;4.13;1.73;;;17.20;63.00;;;;;;5031568;28;20125;-53
2024/03/16 14:26:37;;;;;;;2.97;1.67;;;17.20;63.00;;;;;;5029711;28;20048;-61
2024/03/16 14:29:21;;;;;;;2.50;1.30;;;17.20;63.00;;;;;;5033529;28;20391;-55
2024/03/16 14:32:06;;;;;;;3.92;1.50;;;17.20;63.10;;;;;;5032991;28;20063;-62
2024/03/16 14:34:50;;;;;;;2.00;1.40;;;17.10;62.80;;;;;;5033103;28;20043;-52
2024/03/16 14:37:39;;;;;;;5.30;1.80;;;17.10;62.80;;;;;;5027622;28;20420;-55
2024/03/16 14:40:23;;;;;;;3.63;1.75;;;17.10;62.80;;;;;;5031649;28;20368;-53
2024/03/16 14:43:08;;;;;;;2.80;1.33;;;17.00;62.70;;;;;;5030605;28;20052;-54